KEBS/EBS METAR and TAF weather

Enter ICAO airport designator
Station Type Date Time Source
KEBS METAR 2019/05/23 19:15 UTC NOAA

KEBS 231915Z AUTO 28013KT 10SM CLR 19/10 A3007 RMK AO2


Station Type Date Time Source
KEBS Decoded METAR 2019/05/23 19:15 UTC NOAA

Webster City, IA, United States (KEBS) 42-26N 093-52W
May 23, 2019 - 03:15 PM EDT / 2019.05.23 1915 UTC
Wind: from the W (280 degrees) at 15 MPH (13 KT):0
Visibility: 10 mile(s):0
Sky conditions: clear
Temperature: 66 F (19 C)
Dew Point: 50 F (10 C)
Relative Humidity: 55%
Pressure (altimeter): 30.07 in. Hg (1018 hPa)
ob: KEBS 231915Z AUTO 28013KT 10SM CLR 19/10 A3007 RMK AO2
cycle: 19

Station Type Date Time Source
KEBS TAF UTC NOAA

Error!

Example: see airport list